sensor_id;sensor_type;location;lat;lon;timestamp;P1;P2;P0
66155;PMS5003;52957;50.848;20.656;2022-08-03T00:07:03;61;49;31
66155;PMS5003;52957;50.848;20.656;2022-08-03T00:14:05;61;49;31
66155;PMS5003;52957;50.848;20.656;2022-08-03T00:21:03;61;49;31
66155;PMS5003;52957;50.848;20.656;2022-08-03T00:28:16;61;49;31
66155;PMS5003;52957;50.848;20.656;2022-08-03T00:35:15;59;47;31
66155;PMS5003;52957;50.848;20.656;2022-08-03T00:42:06;59;47;31
66155;PMS5003;52957;50.848;20.656;2022-08-03T00:49:18;59;47;31
66155;PMS5003;52957;50.848;20.656;2022-08-03T00:56:18;59;47;31
66155;PMS5003;52957;50.848;20.656;2022-08-03T01:00:01;59;47;31
66155;PMS5003;52957;50.848;20.656;2022-08-03T01:14:43;57;46;29
66155;PMS5003;52957;50.848;20.656;2022-08-03T01:21:47;57;46;29
66155;PMS5003;52957;50.848;20.656;2022-08-03T01:28:07;57;46;29
66155;PMS5003;52957;50.848;20.656;2022-08-03T01:35:16;60;49;31
66155;PMS5003;52957;50.848;20.656;2022-08-03T01:42:33;60;49;31
66155;PMS5003;52957;50.848;20.656;2022-08-03T01:49:21;60;49;31
66155;PMS5003;52957;50.848;20.656;2022-08-03T01:56:32;60;49;31
66155;PMS5003;52957;50.848;20.656;2022-08-03T02:00:04;60;49;31
66155;PMS5003;52957;50.848;20.656;2022-08-03T02:07:19;61;49;30
66155;PMS5003;52957;50.848;20.656;2022-08-03T02:14:27;61;49;30
66155;PMS5003;52957;50.848;20.656;2022-08-03T02:21:04;61;49;30
66155;PMS5003;52957;50.848;20.656;2022-08-03T02:28:46;61;49;30
66155;PMS5003;52957;50.848;20.656;2022-08-03T02:35:27;57;46;29
66155;PMS5003;52957;50.848;20.656;2022-08-03T02:42:01;57;46;29
66155;PMS5003;52957;50.848;20.656;2022-08-03T02:49:21;57;46;29
66155;PMS5003;52957;50.848;20.656;2022-08-03T02:56:29;57;46;29
66155;PMS5003;52957;50.848;20.656;2022-08-03T03:00:18;57;46;29
66155;PMS5003;52957;50.848;20.656;2022-08-03T03:07:02;57;46;29
66155;PMS5003;52957;50.848;20.656;2022-08-03T03:14:02;57;46;29
66155;PMS5003;52957;50.848;20.656;2022-08-03T03:21:18;57;46;29
66155;PMS5003;52957;50.848;20.656;2022-08-03T03:28:18;57;46;29
66155;PMS5003;52957;50.848;20.656;2022-08-03T03:35:22;55;44;28
66155;PMS5003;52957;50.848;20.656;2022-08-03T03:42:09;55;44;28
66155;PMS5003;52957;50.848;20.656;2022-08-03T03:49:34;55;44;28
66155;PMS5003;52957;50.848;20.656;2022-08-03T03:56:17;55;44;28
66155;PMS5003;52957;50.848;20.656;2022-08-03T04:00:12;55;44;28
66155;PMS5003;52957;50.848;20.656;2022-08-03T04:14:39;58;47;30
66155;PMS5003;52957;50.848;20.656;2022-08-03T04:21:04;58;47;30
66155;PMS5003;52957;50.848;20.656;2022-08-03T04:28:27;58;47;30
66155;PMS5003;52957;50.848;20.656;2022-08-03T04:35:18;62;49;30
66155;PMS5003;52957;50.848;20.656;2022-08-03T04:42:02;62;49;30
66155;PMS5003;52957;50.848;20.656;2022-08-03T04:49:26;62;49;30
66155;PMS5003;52957;50.848;20.656;2022-08-03T04:56:20;62;49;30
66155;PMS5003;52957;50.848;20.656;2022-08-03T05:00:20;62;49;30
66155;PMS5003;52957;50.848;20.656;2022-08-03T05:07:03;53;44;28
66155;PMS5003;52957;50.848;20.656;2022-08-03T05:14:02;53;44;28
66155;PMS5003;52957;50.848;20.656;2022-08-03T05:21:05;53;44;28
66155;PMS5003;52957;50.848;20.656;2022-08-03T05:28:16;53;44;28
66155;PMS5003;52957;50.848;20.656;2022-08-03T05:35:13;50;41;26
66155;PMS5003;52957;50.848;20.656;2022-08-03T05:42:14;50;41;26
66155;PMS5003;52957;50.848;20.656;2022-08-03T05:49:20;50;41;26
66155;PMS5003;52957;50.848;20.656;2022-08-03T05:56:16;50;41;26
66155;PMS5003;52957;50.848;20.656;2022-08-03T06:00:10;50;41;26
66155;PMS5003;52957;50.848;20.656;2022-08-03T06:07:16;50;39;25
66155;PMS5003;52957;50.848;20.656;2022-08-03T06:14:16;50;39;25
66155;PMS5003;52957;50.848;20.656;2022-08-03T06:21:19;50;39;25
66155;PMS5003;52957;50.848;20.656;2022-08-03T06:28:18;50;39;25
66155;PMS5003;52957;50.848;20.656;2022-08-03T06:35:17;37;34;21
66155;PMS5003;52957;50.848;20.656;2022-08-03T06:42:18;37;34;21
66155;PMS5003;52957;50.848;20.656;2022-08-03T06:49:20;37;34;21
66155;PMS5003;52957;50.848;20.656;2022-08-03T06:56:05;37;34;21
66155;PMS5003;52957;50.848;20.656;2022-08-03T07:00:25;37;34;21
66155;PMS5003;52957;50.848;20.656;2022-08-03T07:07:20;39;35;21
66155;PMS5003;52957;50.848;20.656;2022-08-03T07:14:16;39;35;21
66155;PMS5003;52957;50.848;20.656;2022-08-03T07:21:22;39;35;21
66155;PMS5003;52957;50.848;20.656;2022-08-03T07:28:06;39;35;21
66155;PMS5003;52957;50.848;20.656;2022-08-03T07:42:05;35;32;21
66155;PMS5003;52957;50.848;20.656;2022-08-03T07:49:18;35;32;21
66155;PMS5003;52957;50.848;20.656;2022-08-03T07:56:16;35;32;21
66155;PMS5003;52957;50.848;20.656;2022-08-03T08:00:30;35;32;21
66155;PMS5003;52957;50.848;20.656;2022-08-03T08:14:18;31;30;19
66155;PMS5003;52957;50.848;20.656;2022-08-03T08:21:15;31;30;19
66155;PMS5003;52957;50.848;20.656;2022-08-03T08:28:08;31;30;19
66155;PMS5003;52957;50.848;20.656;2022-08-03T08:42:18;37;32;22
66155;PMS5003;52957;50.848;20.656;2022-08-03T08:49:02;37;32;22
66155;PMS5003;52957;50.848;20.656;2022-08-03T08:56:25;37;32;22
66155;PMS5003;52957;50.848;20.656;2022-08-03T09:00:25;37;32;22
66155;PMS5003;52957;50.848;20.656;2022-08-03T09:14:04;33;32;20
66155;PMS5003;52957;50.848;20.656;2022-08-03T09:21:22;33;32;20
66155;PMS5003;52957;50.848;20.656;2022-08-03T09:28:07;33;32;20
66155;PMS5003;52957;50.848;20.656;2022-08-03T09:35:06;33;32;20
66155;PMS5003;52957;50.848;20.656;2022-08-03T09:42:30;24;23;16
66155;PMS5003;52957;50.848;20.656;2022-08-03T09:49:20;24;23;16
66155;PMS5003;52957;50.848;20.656;2022-08-03T09:56:04;24;23;16
66155;PMS5003;52957;50.848;20.656;2022-08-03T10:00:15;24;23;16
66155;PMS5003;52957;50.848;20.656;2022-08-03T10:14:19;29;29;19
66155;PMS5003;52957;50.848;20.656;2022-08-03T10:21:33;29;29;19
66155;PMS5003;52957;50.848;20.656;2022-08-03T10:28:07;29;29;19
66155;PMS5003;52957;50.848;20.656;2022-08-03T10:35:12;29;29;19
66155;PMS5003;52957;50.848;20.656;2022-08-03T10:42:24;28;27;18
66155;PMS5003;52957;50.848;20.656;2022-08-03T10:49:11;28;27;18
66155;PMS5003;52957;50.848;20.656;2022-08-03T11:00:04;28;27;18
66155;PMS5003;52957;50.848;20.656;2022-08-03T11:14:07;30;30;20
66155;PMS5003;52957;50.848;20.656;2022-08-03T11:21:03;30;30;20
66155;PMS5003;52957;50.848;20.656;2022-08-03T11:28:28;30;30;20
66155;PMS5003;52957;50.848;20.656;2022-08-03T11:35:20;30;30;20
66155;PMS5003;52957;50.848;20.656;2022-08-03T11:42:18;35;32;21
66155;PMS5003;52957;50.848;20.656;2022-08-03T11:49:06;35;32;21
66155;PMS5003;52957;50.848;20.656;2022-08-03T11:56:15;35;32;21
66155;PMS5003;52957;50.848;20.656;2022-08-03T12:00:44;35;32;21
66155;PMS5003;52957;50.848;20.656;2022-08-03T12:14:03;34;30;20
66155;PMS5003;52957;50.848;20.656;2022-08-03T12:21:14;34;30;20
66155;PMS5003;52957;50.848;20.656;2022-08-03T12:28:07;34;30;20
66155;PMS5003;52957;50.848;20.656;2022-08-03T12:35:25;34;30;20
66155;PMS5003;52957;50.848;20.656;2022-08-03T12:42:07;31;29;19
66155;PMS5003;52957;50.848;20.656;2022-08-03T12:49:19;31;29;19
66155;PMS5003;52957;50.848;20.656;2022-08-03T12:56:14;31;29;19
66155;PMS5003;52957;50.848;20.656;2022-08-03T13:00:11;31;29;19
66155;PMS5003;52957;50.848;20.656;2022-08-03T13:07:08;31;29;19
66155;PMS5003;52957;50.848;20.656;2022-08-03T13:14:02;27;27;17
66155;PMS5003;52957;50.848;20.656;2022-08-03T13:21:22;27;27;17
66155;PMS5003;52957;50.848;20.656;2022-08-03T13:28:17;27;27;17
66155;PMS5003;52957;50.848;20.656;2022-08-03T13:35:19;27;27;17
66155;PMS5003;52957;50.848;20.656;2022-08-03T13:42:18;29;27;18
66155;PMS5003;52957;50.848;20.656;2022-08-03T13:49:06;29;27;18
66155;PMS5003;52957;50.848;20.656;2022-08-03T13:56:04;29;27;18
66155;PMS5003;52957;50.848;20.656;2022-08-03T14:00:23;29;27;18
66155;PMS5003;52957;50.848;20.656;2022-08-03T14:07:17;29;27;18
66155;PMS5003;52957;50.848;20.656;2022-08-03T14:14:03;29;29;16
66155;PMS5003;52957;50.848;20.656;2022-08-03T14:21:05;29;29;16
66155;PMS5003;52957;50.848;20.656;2022-08-03T14:28:02;29;29;16
66155;PMS5003;52957;50.848;20.656;2022-08-03T14:35:18;29;29;16
66155;PMS5003;52957;50.848;20.656;2022-08-03T14:42:07;26;25;17
66155;PMS5003;52957;50.848;20.656;2022-08-03T14:49:21;26;25;17
66155;PMS5003;52957;50.848;20.656;2022-08-03T14:56:19;26;25;17
66155;PMS5003;52957;50.848;20.656;2022-08-03T15:00:05;26;25;17
66155;PMS5003;52957;50.848;20.656;2022-08-03T15:07:02;26;25;17
66155;PMS5003;52957;50.848;20.656;2022-08-03T15:14:03;24;23;16
66155;PMS5003;52957;50.848;20.656;2022-08-03T15:21:15;24;23;16
66155;PMS5003;52957;50.848;20.656;2022-08-03T15:28:03;24;23;16
66155;PMS5003;52957;50.848;20.656;2022-08-03T15:35:07;24;23;16
66155;PMS5003;52957;50.848;20.656;2022-08-03T15:49:21;34;31;21
66155;PMS5003;52957;50.848;20.656;2022-08-03T15:56:04;34;31;21
66155;PMS5003;52957;50.848;20.656;2022-08-03T16:00:08;34;31;21
66155;PMS5003;52957;50.848;20.656;2022-08-03T16:07:41;34;31;21
66155;PMS5003;52957;50.848;20.656;2022-08-03T16:21:03;44;37;24
66155;PMS5003;52957;50.848;20.656;2022-08-03T16:28:06;44;37;24
66155;PMS5003;52957;50.848;20.656;2022-08-03T16:35:19;44;37;24
66155;PMS5003;52957;50.848;20.656;2022-08-03T16:49:18;68;51;31
66155;PMS5003;52957;50.848;20.656;2022-08-03T16:56:02;68;51;31
66155;PMS5003;52957;50.848;20.656;2022-08-03T17:00:25;68;51;31
66155;PMS5003;52957;50.848;20.656;2022-08-03T17:07:06;68;51;31
66155;PMS5003;52957;50.848;20.656;2022-08-03T17:21:37;34;32;20
66155;PMS5003;52957;50.848;20.656;2022-08-03T17:28:15;34;32;20
66155;PMS5003;52957;50.848;20.656;2022-08-03T17:35:13;34;32;20
66155;PMS5003;52957;50.848;20.656;2022-08-03T17:49:03;34;31;18
66155;PMS5003;52957;50.848;20.656;2022-08-03T17:56:26;34;31;18
66155;PMS5003;52957;50.848;20.656;2022-08-03T18:07:27;34;31;18
66155;PMS5003;52957;50.848;20.656;2022-08-03T18:21:03;39;33;22
66155;PMS5003;52957;50.848;20.656;2022-08-03T18:28:13;39;33;22
66155;PMS5003;52957;50.848;20.656;2022-08-03T18:35:12;39;33;22
66155;PMS5003;52957;50.848;20.656;2022-08-03T18:56:52;44;35;22
66155;PMS5003;52957;50.848;20.656;2022-08-03T19:00:03;44;35;22
66155;PMS5003;52957;50.848;20.656;2022-08-03T19:07:53;44;35;22
66155;PMS5003;52957;50.848;20.656;2022-08-03T19:21:02;49;42;26
66155;PMS5003;52957;50.848;20.656;2022-08-03T19:28:06;49;42;26
66155;PMS5003;52957;50.848;20.656;2022-08-03T19:35:07;49;42;26
66155;PMS5003;52957;50.848;20.656;2022-08-03T19:42:04;49;42;26
66155;PMS5003;52957;50.848;20.656;2022-08-03T19:49:45;54;44;28
66155;PMS5003;52957;50.848;20.656;2022-08-03T19:56:08;54;44;28
66155;PMS5003;52957;50.848;20.656;2022-08-03T20:00:21;54;44;28
66155;PMS5003;52957;50.848;20.656;2022-08-03T20:07:04;54;44;28
66155;PMS5003;52957;50.848;20.656;2022-08-03T20:21:10;53;43;26
66155;PMS5003;52957;50.848;20.656;2022-08-03T20:28:43;53;43;26
66155;PMS5003;52957;50.848;20.656;2022-08-03T20:42:18;53;43;26
66155;PMS5003;52957;50.848;20.656;2022-08-03T20:49:23;56;45;28
66155;PMS5003;52957;50.848;20.656;2022-08-03T20:56:04;56;45;28
66155;PMS5003;52957;50.848;20.656;2022-08-03T21:00:11;56;45;28
66155;PMS5003;52957;50.848;20.656;2022-08-03T21:07:18;56;45;28
66155;PMS5003;52957;50.848;20.656;2022-08-03T21:21:37;52;43;27
66155;PMS5003;52957;50.848;20.656;2022-08-03T21:28:08;52;43;27
66155;PMS5003;52957;50.848;20.656;2022-08-03T21:35:03;52;43;27
66155;PMS5003;52957;50.848;20.656;2022-08-03T21:49:17;75;61;35
66155;PMS5003;52957;50.848;20.656;2022-08-03T21:56:39;75;61;35
66155;PMS5003;52957;50.848;20.656;2022-08-03T22:00:24;75;61;35
66155;PMS5003;52957;50.848;20.656;2022-08-03T22:07:21;75;61;35
66155;PMS5003;52957;50.848;20.656;2022-08-03T22:14:04;53;43;26
66155;PMS5003;52957;50.848;20.656;2022-08-03T22:21:16;53;43;26
66155;PMS5003;52957;50.848;20.656;2022-08-03T22:28:03;53;43;26
66155;PMS5003;52957;50.848;20.656;2022-08-03T22:35:03;49;41;24
66155;PMS5003;52957;50.848;20.656;2022-08-03T22:42:19;49;41;24
66155;PMS5003;52957;50.848;20.656;2022-08-03T22:49:18;49;41;24
66155;PMS5003;52957;50.848;20.656;2022-08-03T22:56:18;49;41;24
66155;PMS5003;52957;50.848;20.656;2022-08-03T23:07:08;49;42;25
66155;PMS5003;52957;50.848;20.656;2022-08-03T23:14:09;49;42;25
66155;PMS5003;52957;50.848;20.656;2022-08-03T23:21:22;49;42;25
66155;PMS5003;52957;50.848;20.656;2022-08-03T23:28:16;49;42;25
66155;PMS5003;52957;50.848;20.656;2022-08-03T23:35:03;52;42;26
66155;PMS5003;52957;50.848;20.656;2022-08-03T23:42:05;52;42;26
66155;PMS5003;52957;50.848;20.656;2022-08-03T23:49:20;52;42;26
66155;PMS5003;52957;50.848;20.656;2022-08-03T23:56:44;52;42;26
